Terminal Aerodrome Forecast
Issued by NWS

Home | Current Version | Previous Version | Text Only | Print | Product List | Glossary On
Versions: 1 2 3 4 5 6 7 8 9 10 11 12 13 14 15 16 17 18
000
FTUS41 KCAR 311136
TAFBHB
TAF
KBHB 311136Z 3112/0112 34012G25KT 1 1/2SM -SN BLSN SCT005 OVC015
     FM311500 34021G35KT 2SM -SN BLSN BKN007 OVC015
     FM312100 34018G28KT 4SM -SN BLSN SCT008 BKN025
     FM010000 35015G25KT 6SM BLSN SCT025
      AMD LTD TO CLD VIS AND WIND=

USA.gov is the U.S. government's official web portal to all federal, state and local government web resources and services.